Time;durP1;ratioP1;P1;durP2;ratioP2;P2;SDS_P1;SDS_P2;PMS_P1;PMS_P2;Temp;Humidity;BMP_temperature;BMP_pressure;BME280_temperature;BME280_humidity;BME280_pressure;Samples;Min_cycle;Max_cycle;Signal;HPM_P1;HPM_P2
2021/10/22 00:00:18;;;;;;;2.60;1.42;;;;;;;;;;5087312;28;20077;-53
2021/10/22 00:02:44;;;;;;;1.70;1.13;;;;;;;;;;5088297;28;20116;-53
2021/10/22 00:05:10;;;;;;;3.20;1.70;;;;;;;;;;5087968;28;20020;-54
2021/10/22 00:07:36;;;;;;;3.63;2.00;;;;;;;;;;5088903;28;20035;-53
2021/10/22 00:10:03;;;;;;;2.97;1.33;;;;;;;;;;5087864;28;20040;-51
2021/10/22 00:12:29;;;;;;;2.47;1.20;;;;;;;;;;5088356;28;20313;-54
2021/10/22 00:14:55;;;;;;;2.53;1.58;;;;;;;;;;5078603;28;20036;-53
2021/10/22 00:17:21;;;;;;;2.65;1.27;;;;;;;;;;5067550;28;20025;-54
2021/10/22 00:19:48;;;;;;;2.35;1.40;;;;;;;;;;5067387;28;20081;-50
2021/10/22 00:22:14;;;;;;;2.58;1.25;;;;;;;;;;5067364;28;20469;-52
2021/10/22 00:24:40;;;;;;;2.60;1.40;;;;;;;;;;5068440;28;20388;-54
2021/10/22 00:27:07;;;;;;;3.72;1.25;;;;;;;;;;5067820;28;20078;-51
2021/10/22 00:29:33;;;;;;;2.08;1.05;;;;;;;;;;5068836;28;20093;-51
2021/10/22 00:31:59;;;;;;;2.22;1.30;;;;;;;;;;5087551;28;20035;-50
2021/10/22 00:34:27;;;;;;;2.20;1.30;;;;;;;;;;5084792;28;20137;-50
2021/10/22 00:36:54;;;;;;;2.42;1.27;;;;;;;;;;5067057;28;20032;-50
2021/10/22 00:39:20;;;;;;;2.65;1.27;;;;;;;;;;5067592;28;20393;-49
2021/10/22 00:41:46;;;;;;;1.75;1.13;;;;;;;;;;5067081;28;20024;-51
2021/10/22 00:44:12;;;;;;;2.13;1.15;;;;;;;;;;5066998;28;20031;-54
2021/10/22 00:46:38;;;;;;;0.82;0.80;;;;;;;;;;5067674;28;20025;-53
2021/10/22 00:49:08;;;;;;;2.75;1.00;;;;;;;;;;5065107;28;20638;-53
2021/10/22 00:51:36;;;;;;;2.28;1.00;;;;;;;;;;5067065;28;20028;-54
2021/10/22 00:54:06;;;;;;;2.03;0.95;;;;;;;;;;5066908;28;20099;-54
2021/10/22 00:56:34;;;;;;;2.38;1.23;;;;;;;;;;5066693;28;20332;-51
2021/10/22 00:59:04;;;;;;;1.45;0.93;;;;;;;;;;5066905;28;20025;-51
2021/10/22 01:01:31;;;;;;;1.00;0.80;;;;;;;;;;5066755;28;20451;-50
2021/10/22 01:03:57;;;;;;;2.05;0.80;;;;;;;;;;5066467;28;20039;-54
2021/10/22 01:06:23;;;;;;;1.35;0.90;;;;;;;;;;5066785;28;20047;-53
2021/10/22 01:08:50;;;;;;;1.65;1.00;;;;;;;;;;5066596;28;20263;-53
2021/10/22 01:11:17;;;;;;;1.40;0.88;;;;;;;;;;5065655;28;20036;-53
2021/10/22 01:13:45;;;;;;;2.35;1.08;;;;;;;;;;5066617;28;20095;-54
2021/10/22 01:16:12;;;;;;;1.35;0.85;;;;;;;;;;5085032;28;20684;-54
2021/10/22 01:18:38;;;;;;;1.80;1.00;;;;;;;;;;5086668;28;20115;-53
2021/10/22 01:21:05;;;;;;;1.85;0.98;;;;;;;;;;5085212;28;20107;-53
2021/10/22 01:23:31;;;;;;;3.13;1.15;;;;;;;;;;5086866;28;20035;-53
2021/10/22 01:25:59;;;;;;;1.88;1.00;;;;;;;;;;5086374;28;20274;-54
2021/10/22 01:28:25;;;;;;;1.50;1.20;;;;;;;;;;5085603;28;20027;-53
2021/10/22 01:30:52;;;;;;;2.35;1.08;;;;;;;;;;5087524;28;20051;-53
2021/10/22 01:33:18;;;;;;;1.10;0.75;;;;;;;;;;5085918;28;20023;-52
2021/10/22 01:35:48;;;;;;;1.38;0.82;;;;;;;;;;5070533;28;20028;-51
2021/10/22 01:38:15;;;;;;;1.38;0.70;;;;;;;;;;5065688;28;20508;-54
2021/10/22 01:40:42;;;;;;;1.30;0.88;;;;;;;;;;5066126;28;20031;-51
2021/10/22 01:43:09;;;;;;;2.58;1.10;;;;;;;;;;5065533;28;20507;-51
2021/10/22 01:45:35;;;;;;;2.72;1.38;;;;;;;;;;5066053;28;20641;-52
2021/10/22 01:48:01;;;;;;;1.75;0.90;;;;;;;;;;5065813;28;20027;-53
2021/10/22 01:50:28;;;;;;;1.30;0.90;;;;;;;;;;5065751;28;20051;-51
2021/10/22 01:52:54;;;;;;;3.15;1.05;;;;;;;;;;5066143;28;20407;-53
2021/10/22 01:55:20;;;;;;;1.95;0.85;;;;;;;;;;5066121;28;20404;-50
2021/10/22 01:57:46;;;;;;;1.80;1.00;;;;;;;;;;5065645;28;20028;-50
2021/10/22 02:00:12;;;;;;;2.80;1.30;;;;;;;;;;5065235;28;20077;-52
2021/10/22 02:02:38;;;;;;;2.50;1.13;;;;;;;;;;5065465;28;20024;-50
2021/10/22 02:05:04;;;;;;;1.83;1.17;;;;;;;;;;5064804;28;20027;-51
2021/10/22 02:07:30;;;;;;;3.03;1.40;;;;;;;;;;5065406;28;20031;-53
2021/10/22 02:09:57;;;;;;;1.63;1.00;;;;;;;;;;5065261;28;20526;-53
2021/10/22 02:12:23;;;;;;;2.05;1.27;;;;;;;;;;5065730;28;20028;-50
2021/10/22 02:14:50;;;;;;;3.00;0.90;;;;;;;;;;5065088;28;20038;-49
2021/10/22 02:17:17;;;;;;;2.10;0.98;;;;;;;;;;5064980;28;20493;-50
2021/10/22 02:19:43;;;;;;;2.03;1.00;;;;;;;;;;5065149;28;20024;-50
2021/10/22 02:22:09;;;;;;;1.65;0.90;;;;;;;;;;5064897;28;20099;-51
2021/10/22 02:24:37;;;;;;;2.20;1.27;;;;;;;;;;5065569;28;20025;-51
2021/10/22 02:27:03;;;;;;;1.23;0.85;;;;;;;;;;5064731;28;20016;-51
2021/10/22 02:29:30;;;;;;;1.17;0.80;;;;;;;;;;5065195;28;20037;-53
2021/10/22 02:31:56;;;;;;;2.00;1.17;;;;;;;;;;5064776;28;20028;-50
2021/10/22 02:34:22;;;;;;;1.58;0.90;;;;;;;;;;5064588;28;20032;-52
2021/10/22 02:36:49;;;;;;;2.00;1.00;;;;;;;;;;5064189;28;20029;-50
2021/10/22 02:39:16;;;;;;;1.63;0.90;;;;;;;;;;5064625;28;20059;-52
2021/10/22 02:41:44;;;;;;;1.40;0.77;;;;;;;;;;5064911;28;20017;-50
2021/10/22 02:44:10;;;;;;;1.27;0.70;;;;;;;;;;5064446;28;20079;-51
2021/10/22 02:46:36;;;;;;;2.20;1.20;;;;;;;;;;5065127;28;20016;-51
2021/10/22 02:49:03;;;;;;;2.83;1.08;;;;;;;;;;5063950;28;20142;-50
2021/10/22 02:51:30;;;;;;;2.13;1.58;;;;;;;;;;5065108;28;20507;-50
2021/10/22 02:53:56;;;;;;;1.58;1.02;;;;;;;;;;5063762;28;20041;-50
2021/10/22 02:56:23;;;;;;;1.80;1.10;;;;;;;;;;5065055;28;20038;-54
2021/10/22 02:58:49;;;;;;;3.03;1.30;;;;;;;;;;5065143;28;20028;-50
2021/10/22 03:01:15;;;;;;;2.30;1.30;;;;;;;;;;5064345;28;20028;-50
2021/10/22 03:03:42;;;;;;;1.92;1.27;;;;;;;;;;5064903;28;20032;-50
2021/10/22 03:06:08;;;;;;;2.88;1.40;;;;;;;;;;5064649;28;20043;-51
2021/10/22 03:08:34;;;;;;;3.25;1.27;;;;;;;;;;5064582;28;20032;-49
2021/10/22 03:11:01;;;;;;;3.50;1.10;;;;;;;;;;5064745;28;20039;-49
2021/10/22 03:13:27;;;;;;;2.35;1.10;;;;;;;;;;5064863;28;20570;-50
2021/10/22 03:15:56;;;;;;;2.30;1.13;;;;;;;;;;5072202;28;20020;-51
2021/10/22 03:18:22;;;;;;;1.20;1.00;;;;;;;;;;5088657;28;20024;-51
2021/10/22 03:20:49;;;;;;;2.00;1.20;;;;;;;;;;5088134;28;20073;-49
2021/10/22 03:23:16;;;;;;;1.52;1.02;;;;;;;;;;5088634;28;20100;-50
2021/10/22 03:25:42;;;;;;;1.98;1.00;;;;;;;;;;5077913;28;20028;-51
2021/10/22 03:28:08;;;;;;;1.55;1.05;;;;;;;;;;5068298;28;20029;-53
2021/10/22 03:30:35;;;;;;;1.85;1.17;;;;;;;;;;5078682;28;20522;-52
2021/10/22 03:33:02;;;;;;;1.17;0.80;;;;;;;;;;5087190;28;20039;-50
2021/10/22 03:35:29;;;;;;;3.00;1.35;;;;;;;;;;5088872;28;20028;-52
2021/10/22 03:37:55;;;;;;;2.28;1.33;;;;;;;;;;5088781;28;20028;-53
2021/10/22 03:40:21;;;;;;;3.03;1.25;;;;;;;;;;5089146;28;20069;-52
2021/10/22 03:42:48;;;;;;;1.40;0.85;;;;;;;;;;5088771;28;20028;-50
2021/10/22 03:45:15;;;;;;;1.35;1.00;;;;;;;;;;5088335;28;20087;-51
2021/10/22 03:47:42;;;;;;;2.25;1.10;;;;;;;;;;5088330;28;20016;-50
2021/10/22 03:50:10;;;;;;;2.80;1.20;;;;;;;;;;5082311;28;20055;-51
2021/10/22 03:52:36;;;;;;;1.75;1.08;;;;;;;;;;5068845;28;20040;-53
2021/10/22 03:55:02;;;;;;;2.47;1.00;;;;;;;;;;5067965;28;20037;-51
2021/10/22 03:57:29;;;;;;;2.20;1.08;;;;;;;;;;5068036;28;20104;-53
2021/10/22 03:59:55;;;;;;;2.63;1.00;;;;;;;;;;5068303;28;20041;-54
2021/10/22 04:02:21;;;;;;;1.98;1.48;;;;;;;;;;5068322;28;20029;-54
2021/10/22 04:04:47;;;;;;;1.90;1.27;;;;;;;;;;5068145;28;20026;-54
2021/10/22 04:07:13;;;;;;;1.75;1.08;;;;;;;;;;5067221;28;20424;-53
2021/10/22 04:09:39;;;;;;;1.35;1.13;;;;;;;;;;5067148;28;20545;-53
2021/10/22 04:12:05;;;;;;;2.33;1.20;;;;;;;;;;5066013;28;20052;-53
2021/10/22 04:14:31;;;;;;;4.07;1.35;;;;;;;;;;5066958;28;20111;-50
2021/10/22 04:16:59;;;;;;;1.20;1.00;;;;;;;;;;5066143;28;20452;-53
2021/10/22 04:19:25;;;;;;;2.63;1.55;;;;;;;;;;5066472;28;20020;-55
2021/10/22 04:21:52;;;;;;;3.22;1.42;;;;;;;;;;5066998;28;20017;-51
2021/10/22 04:24:19;;;;;;;1.98;1.00;;;;;;;;;;5066541;28;20028;-51
2021/10/22 04:26:45;;;;;;;1.90;1.50;;;;;;;;;;5066291;28;20032;-53
2021/10/22 04:29:12;;;;;;;1.38;1.02;;;;;;;;;;5066352;28;20038;-52
2021/10/22 04:31:38;;;;;;;2.08;1.40;;;;;;;;;;5080652;28;20024;-52
2021/10/22 04:34:05;;;;;;;2.63;1.30;;;;;;;;;;5065944;28;20060;-50
2021/10/22 04:36:32;;;;;;;2.97;1.30;;;;;;;;;;5085916;28;20020;-50
2021/10/22 04:41:43;;;;;;;2.47;1.10;;;;;;;;;;5084110;28;20051;-51
2021/10/22 04:44:09;;;;;;;2.22;1.20;;;;;;;;;;5065881;28;20092;-53
2021/10/22 04:46:35;;;;;;;2.38;1.25;;;;;;;;;;5066090;28;20371;-53
2021/10/22 04:49:02;;;;;;;1.77;1.10;;;;;;;;;;5065144;28;20017;-53
2021/10/22 04:51:28;;;;;;;1.75;1.08;;;;;;;;;;5064581;28;20407;-51
2021/10/22 04:53:55;;;;;;;5.72;1.35;;;;;;;;;;5066862;28;20472;-54
2021/10/22 04:56:23;;;;;;;2.63;1.20;;;;;;;;;;5066432;28;20035;-51
2021/10/22 04:58:50;;;;;;;1.42;1.02;;;;;;;;;;5065629;28;20063;-51
2021/10/22 05:01:16;;;;;;;2.83;1.48;;;;;;;;;;5065968;28;20256;-50
2021/10/22 05:03:42;;;;;;;2.00;0.95;;;;;;;;;;5065591;28;20021;-53
2021/10/22 05:06:08;;;;;;;1.58;0.90;;;;;;;;;;5065389;28;20021;-51
2021/10/22 05:08:34;;;;;;;1.48;1.05;;;;;;;;;;5065672;28;20021;-51
2021/10/22 05:11:00;;;;;;;1.93;1.10;;;;;;;;;;5027291;28;1118454;-53
2021/10/22 05:13:26;;;;;;;2.30;1.20;;;;;;;;;;5079931;28;20438;-53
2021/10/22 05:15:52;;;;;;;3.15;1.40;;;;;;;;;;5083574;28;20023;-50
2021/10/22 05:18:18;;;;;;;3.05;1.20;;;;;;;;;;5088107;28;20097;-51
2021/10/22 05:20:45;;;;;;;1.75;1.08;;;;;;;;;;5074878;28;20560;-53
2021/10/22 05:23:12;;;;;;;3.20;1.45;;;;;;;;;;5083086;28;20048;-53
2021/10/22 05:25:38;;;;;;;1.80;1.40;;;;;;;;;;5085925;28;20027;-54
2021/10/22 05:28:04;;;;;;;2.15;1.20;;;;;;;;;;5071436;28;20052;-50
2021/10/22 05:30:31;;;;;;;3.25;1.67;;;;;;;;;;5080526;28;20066;-53
2021/10/22 05:32:57;;;;;;;2.47;1.50;;;;;;;;;;5080633;28;20124;-53
2021/10/22 05:35:23;;;;;;;2.85;1.58;;;;;;;;;;5088481;28;20024;-51
2021/10/22 05:37:49;;;;;;;1.90;1.25;;;;;;;;;;5078209;28;20107;-54
2021/10/22 05:40:15;;;;;;;2.65;1.33;;;;;;;;;;5066594;28;20491;-53
2021/10/22 05:42:41;;;;;;;2.10;1.08;;;;;;;;;;5069523;28;20028;-54
2021/10/22 05:45:08;;;;;;;1.65;1.02;;;;;;;;;;5066459;28;20035;-52
2021/10/22 05:47:35;;;;;;;1.98;1.02;;;;;;;;;;5067074;28;20024;-53
2021/10/22 05:50:01;;;;;;;1.77;0.90;;;;;;;;;;5085640;28;20031;-51
2021/10/22 05:52:27;;;;;;;1.77;0.93;;;;;;;;;;5087834;28;20482;-52
2021/10/22 05:54:54;;;;;;;1.83;1.00;;;;;;;;;;5086399;28;20145;-51
2021/10/22 05:57:20;;;;;;;1.42;0.80;;;;;;;;;;5085833;28;20039;-53
2021/10/22 05:59:46;;;;;;;1.20;1.00;;;;;;;;;;5076935;28;20036;-51
2021/10/22 06:02:12;;;;;;;1.50;0.80;;;;;;;;;;5067098;28;20028;-54
2021/10/22 06:04:38;;;;;;;1.15;0.90;;;;;;;;;;5067776;28;20051;-53
2021/10/22 06:07:04;;;;;;;1.63;1.00;;;;;;;;;;5084948;28;20035;-53
2021/10/22 06:09:30;;;;;;;1.85;0.93;;;;;;;;;;5072816;28;20037;-54
2021/10/22 06:11:56;;;;;;;1.77;0.90;;;;;;;;;;5078573;28;20461;-51
2021/10/22 06:14:22;;;;;;;1.98;0.90;;;;;;;;;;5070489;28;20403;-53
2021/10/22 06:16:48;;;;;;;0.93;0.70;;;;;;;;;;5070693;28;20502;-53
2021/10/22 06:19:17;;;;;;;1.00;0.90;;;;;;;;;;5073075;28;20094;-53
2021/10/22 06:24:09;;;;;;;1.27;0.95;;;;;;;;;;5066666;28;20033;-52
2021/10/22 06:26:38;;;;;;;1.20;0.88;;;;;;;;;;5079124;28;20028;-52
2021/10/22 06:29:05;;;;;;;2.20;0.90;;;;;;;;;;5086603;28;20024;-53
2021/10/22 06:31:32;;;;;;;1.02;0.75;;;;;;;;;;5086731;28;20031;-51
2021/10/22 06:33:59;;;;;;;0.85;0.82;;;;;;;;;;5074970;28;20032;-53
2021/10/22 06:36:26;;;;;;;1.20;0.70;;;;;;;;;;5066704;28;20025;-54
2021/10/22 06:38:52;;;;;;;2.13;0.70;;;;;;;;;;5067233;28;20039;-53
2021/10/22 06:41:18;;;;;;;1.02;0.55;;;;;;;;;;5067922;28;20036;-54
2021/10/22 06:43:45;;;;;;;0.85;0.70;;;;;;;;;;5067703;28;20076;-51
2021/10/22 06:46:11;;;;;;;0.80;0.63;;;;;;;;;;5077324;28;20032;-52
2021/10/22 06:48:38;;;;;;;1.05;0.73;;;;;;;;;;5086518;28;20103;-52
2021/10/22 06:51:07;;;;;;;1.40;0.70;;;;;;;;;;5082461;28;20102;-52
2021/10/22 06:53:33;;;;;;;1.38;0.70;;;;;;;;;;5085631;28;20032;-52
2021/10/22 06:56:00;;;;;;;1.08;0.60;;;;;;;;;;5074581;28;20024;-52
2021/10/22 06:58:26;;;;;;;1.95;0.85;;;;;;;;;;5071877;28;20662;-54
2021/10/22 07:00:52;;;;;;;2.30;0.80;;;;;;;;;;5069839;28;20063;-52
2021/10/22 07:03:20;;;;;;;1.13;0.60;;;;;;;;;;5081261;28;20108;-52
2021/10/22 07:05:52;;;;;;;0.70;0.60;;;;;;;;;;5082621;28;20498;-53
2021/10/22 07:08:18;;;;;;;0.80;0.70;;;;;;;;;;5070777;28;20052;-52
2021/10/22 07:10:44;;;;;;;1.10;0.80;;;;;;;;;;5081146;28;20036;-52
2021/10/22 07:13:11;;;;;;;1.75;0.75;;;;;;;;;;5069443;28;20037;-52
2021/10/22 07:15:37;;;;;;;0.85;0.70;;;;;;;;;;5064757;28;20123;-53
2021/10/22 07:18:04;;;;;;;1.00;0.70;;;;;;;;;;5070816;28;20031;-52
2021/10/22 07:20:31;;;;;;;1.08;0.80;;;;;;;;;;5078999;28;20024;-53
2021/10/22 07:23:06;;;;;;;0.70;0.60;;;;;;;;;;5081133;28;20024;-53
2021/10/22 07:25:33;;;;;;;0.90;0.75;;;;;;;;;;5107329;28;20031;-53
2021/10/22 07:28:08;;;;;;;0.95;0.63;;;;;;;;;;5077692;28;20488;-52
2021/10/22 07:30:35;;;;;;;1.60;0.80;;;;;;;;;;5078518;28;20024;-53
2021/10/22 07:33:01;;;;;;;1.20;0.75;;;;;;;;;;5069046;28;20082;-52
2021/10/22 07:35:28;;;;;;;3.38;0.68;;;;;;;;;;5083393;28;20116;-53
2021/10/22 07:37:54;;;;;;;0.95;0.70;;;;;;;;;;5079822;28;20102;-52
2021/10/22 07:40:20;;;;;;;1.20;0.70;;;;;;;;;;5066478;28;20561;-52
2021/10/22 07:42:46;;;;;;;0.75;0.73;;;;;;;;;;5070141;28;20458;-54
2021/10/22 07:45:12;;;;;;;2.78;0.70;;;;;;;;;;5076261;28;20035;-53
2021/10/22 07:47:38;;;;;;;1.48;0.80;;;;;;;;;;5085619;28;20028;-53
2021/10/22 07:50:05;;;;;;;1.02;0.70;;;;;;;;;;5072547;28;20102;-52
2021/10/22 07:52:32;;;;;;;1.65;0.75;;;;;;;;;;5086948;28;20425;-53
2021/10/22 07:54:59;;;;;;;0.70;0.60;;;;;;;;;;5081634;28;20035;-52
2021/10/22 07:57:26;;;;;;;0.70;0.50;;;;;;;;;;5066999;28;20025;-52
2021/10/22 07:59:52;;;;;;;1.00;0.80;;;;;;;;;;5066728;28;20035;-53
2021/10/22 08:02:19;;;;;;;0.70;0.60;;;;;;;;;;5077476;28;20031;-52
2021/10/22 08:04:46;;;;;;;0.85;0.65;;;;;;;;;;5069199;28;20032;-53
2021/10/22 08:07:16;;;;;;;1.50;0.75;;;;;;;;;;5073695;28;20561;-53
2021/10/22 08:09:42;;;;;;;0.88;0.77;;;;;;;;;;5082096;28;20070;-53
2021/10/22 08:12:09;;;;;;;2.08;0.80;;;;;;;;;;5071341;28;20060;-52
2021/10/22 08:14:35;;;;;;;1.80;0.70;;;;;;;;;;5078863;28;20032;-52
2021/10/22 08:17:01;;;;;;;1.08;0.50;;;;;;;;;;5082673;28;20445;-53
2021/10/22 08:19:27;;;;;;;0.90;0.65;;;;;;;;;;5070378;28;20494;-53
2021/10/22 08:22:26;;;;;;;1.02;0.60;;;;;;;;;;5076853;28;20025;-53
2021/10/22 08:24:43;;;;;;;1.45;0.60;;;;;;;;;;5070956;28;20120;-52
2021/10/22 08:27:09;;;;;;;1.95;0.88;;;;;;;;;;5070496;28;20016;-49
2021/10/22 08:29:36;;;;;;;0.70;0.60;;;;;;;;;;5077730;28;20016;-49
2021/10/22 08:32:02;;;;;;;0.88;0.60;;;;;;;;;;5070382;28;20510;-47
2021/10/22 08:34:28;;;;;;;0.50;0.47;;;;;;;;;;5074300;28;20020;-50
2021/10/22 08:36:55;;;;;;;0.63;0.60;;;;;;;;;;5077491;28;20025;-47
2021/10/22 08:39:21;;;;;;;0.50;0.50;;;;;;;;;;5079849;28;20487;-49
2021/10/22 08:41:47;;;;;;;0.50;0.50;;;;;;;;;;5081816;28;20031;-47
2021/10/22 08:44:17;;;;;;;1.23;0.60;;;;;;;;;;5069697;28;20020;-47
2021/10/22 08:46:45;;;;;;;0.43;0.43;;;;;;;;;;5069165;28;20118;-48
2021/10/22 08:49:12;;;;;;;1.15;0.57;;;;;;;;;;5080409;28;20031;-48
2021/10/22 08:51:39;;;;;;;0.93;0.60;;;;;;;;;;5089650;28;20036;-48
2021/10/22 08:54:05;;;;;;;0.82;0.80;;;;;;;;;;5089230;28;20028;-50
2021/10/22 08:56:32;;;;;;;3.90;1.90;;;;;;;;;;5078329;28;20028;-48
2021/10/22 08:58:58;;;;;;;4.55;2.45;;;;;;;;;;5081246;28;20481;-51
2021/10/22 09:01:24;;;;;;;4.63;2.70;;;;;;;;;;5088778;28;20034;-47
2021/10/22 09:03:50;;;;;;;3.85;2.25;;;;;;;;;;5087870;28;20131;-48
2021/10/22 09:06:17;;;;;;;3.38;2.15;;;;;;;;;;5087525;28;20039;-51
2021/10/22 09:08:45;;;;;;;3.15;1.80;;;;;;;;;;5086387;28;20171;-47
2021/10/22 09:11:22;;;;;;;2.05;1.40;;;;;;;;;;5074616;28;20044;-47
2021/10/22 09:14:02;;;;;;;1.70;1.10;;;;;;;;;;5083062;28;20064;-47
2021/10/22 09:16:28;;;;;;;2.08;1.38;;;;;;;;;;5089087;28;20024;-47
2021/10/22 09:18:54;;;;;;;1.35;0.90;;;;;;;;;;5079745;28;20024;-48
2021/10/22 09:21:27;;;;;;;1.52;0.80;;;;;;;;;;5067694;28;20125;-49
2021/10/22 09:24:12;;;;;;;1.00;0.90;;;;;;;;;;5069553;28;20013;-49
2021/10/22 09:26:38;;;;;;;0.95;0.80;;;;;;;;;;5074365;28;20031;-49
2021/10/22 09:29:20;;;;;;;1.83;1.15;;;;;;;;;;5087415;28;20105;-47
2021/10/22 09:31:53;;;;;;;2.33;1.60;;;;;;;;;;5088306;28;20028;-48
2021/10/22 09:34:32;;;;;;;2.30;1.50;;;;;;;;;;5087642;28;20027;-47
2021/10/22 09:36:59;;;;;;;3.35;1.80;;;;;;;;;;5087678;28;20093;-48
2021/10/22 09:39:25;;;;;;;2.40;1.30;;;;;;;;;;5072764;28;20525;-48
2021/10/22 09:41:52;;;;;;;2.20;1.25;;;;;;;;;;5067285;28;20488;-49
2021/10/22 09:44:22;;;;;;;1.67;1.08;;;;;;;;;;5070775;28;20032;-49
2021/10/22 09:46:49;;;;;;;0.95;0.75;;;;;;;;;;5075249;28;20032;-49
2021/10/22 09:49:26;;;;;;;1.63;0.80;;;;;;;;;;5066439;28;20093;-47
2021/10/22 09:51:55;;;;;;;0.93;0.80;;;;;;;;;;5067865;28;20059;-48
2021/10/22 09:54:22;;;;;;;1.27;0.90;;;;;;;;;;5068326;28;20029;-50
2021/10/22 09:56:52;;;;;;;1.08;0.70;;;;;;;;;;5072032;28;20024;-47
2021/10/22 09:59:23;;;;;;;0.90;0.63;;;;;;;;;;5080558;28;20032;-51
2021/10/22 10:01:52;;;;;;;0.60;0.60;;;;;;;;;;5087364;28;20024;-52
2021/10/22 10:04:18;;;;;;;1.70;0.77;;;;;;;;;;5086937;28;20039;-47
2021/10/22 10:06:44;;;;;;;1.50;0.60;;;;;;;;;;5079611;28;20028;-49
2021/10/22 10:09:11;;;;;;;1.17;0.80;;;;;;;;;;5066439;28;20033;-50
2021/10/22 10:11:39;;;;;;;1.42;0.80;;;;;;;;;;5066955;28;20082;-50
2021/10/22 10:14:06;;;;;;;1.25;0.73;;;;;;;;;;5073130;28;20032;-48
2021/10/22 10:16:34;;;;;;;1.02;0.80;;;;;;;;;;5076971;28;20029;-50
2021/10/22 10:19:20;;;;;;;1.00;0.68;;;;;;;;;;5082916;28;20088;-49
2021/10/22 10:21:50;;;;;;;0.50;0.50;;;;;;;;;;5074034;28;20030;-51
2021/10/22 10:24:19;;;;;;;0.60;0.60;;;;;;;;;;5075547;28;20082;-48
2021/10/22 10:27:00;;;;;;;0.45;0.43;;;;;;;;;;5073333;28;20106;-48
2021/10/22 10:29:29;;;;;;;1.08;0.60;;;;;;;;;;5088595;28;20062;-52
2021/10/22 10:31:59;;;;;;;0.30;0.30;;;;;;;;;;5088408;28;20389;-51
2021/10/22 10:34:25;;;;;;;0.50;0.50;;;;;;;;;;5084838;28;20024;-52
2021/10/22 10:36:53;;;;;;;1.42;0.77;;;;;;;;;;5077617;28;20026;-52
2021/10/22 10:39:45;;;;;;;2.47;0.80;;;;;;;;;;5075678;28;20048;-53
2021/10/22 10:42:19;;;;;;;1.20;0.70;;;;;;;;;;5066023;28;20049;-49
2021/10/22 10:44:45;;;;;;;1.38;0.77;;;;;;;;;;5067546;28;20426;-50
2021/10/22 10:47:27;;;;;;;0.70;0.40;;;;;;;;;;5067751;28;20024;-49
2021/10/22 10:49:53;;;;;;;0.93;0.52;;;;;;;;;;5067671;28;20086;-50
2021/10/22 10:52:37;;;;;;;0.43;0.40;;;;;;;;;;5080307;28;20394;-52
2021/10/22 10:55:03;;;;;;;;;;;;;;;;;;5078670;28;20025;-51
2021/10/22 10:57:30;;;;;;;1.63;0.60;;;;;;;;;;5075494;28;19912;-50
2021/10/22 11:00:10;;;;;;;1.70;0.70;;;;;;;;;;5075147;28;20491;-53
2021/10/22 11:02:56;;;;;;;1.73;0.73;;;;;;;;;;5070881;28;20391;-52
2021/10/22 11:05:41;;;;;;;1.20;0.70;;;;;;;;;;5067706;28;20027;-51
2021/10/22 11:08:15;;;;;;;0.68;0.52;;;;;;;;;;5075666;28;20024;-52
2021/10/22 11:11:01;;;;;;;1.05;0.60;;;;;;;;;;5072300;28;20040;-51
2021/10/22 11:13:53;;;;;;;1.25;0.50;;;;;;;;;;5067677;28;20021;-47
2021/10/22 11:16:22;;;;;;;1.48;0.70;;;;;;;;;;5058337;28;20051;-52
2021/10/22 11:18:52;;;;;;;0.70;0.50;;;;;;;;;;5066676;28;20043;-51
2021/10/22 11:21:18;;;;;;;0.75;0.52;;;;;;;;;;5066775;28;20101;-51
2021/10/22 11:23:44;;;;;;;0.52;0.50;;;;;;;;;;5074631;28;20020;-51
2021/10/22 11:26:14;;;;;;;0.60;0.40;;;;;;;;;;5079859;28;20040;-50
2021/10/22 11:28:43;;;;;;;0.75;0.50;;;;;;;;;;5080745;28;20027;-51
2021/10/22 11:31:09;;;;;;;0.98;0.60;;;;;;;;;;5086381;28;20032;-48
2021/10/22 11:33:35;;;;;;;0.40;0.40;;;;;;;;;;5087058;28;20043;-50
2021/10/22 11:36:01;;;;;;;1.50;0.75;;;;;;;;;;5086907;28;20422;-49
2021/10/22 11:38:30;;;;;;;0.65;0.50;;;;;;;;;;5080321;28;20024;-48
2021/10/22 11:40:56;;;;;;;0.93;0.60;;;;;;;;;;5092758;28;20036;-50
2021/10/22 11:43:23;;;;;;;0.50;0.40;;;;;;;;;;5070093;28;20069;-48
2021/10/22 11:45:53;;;;;;;0.50;0.40;;;;;;;;;;5070145;28;20056;-50
2021/10/22 11:48:34;;;;;;;0.63;0.50;;;;;;;;;;5070140;28;20525;-48
2021/10/22 11:51:00;;;;;;;0.75;0.30;;;;;;;;;;5082209;28;20114;-48
2021/10/22 11:53:26;;;;;;;0.28;0.28;;;;;;;;;;5089187;28;20031;-49
2021/10/22 11:55:59;;;;;;;0.75;0.52;;;;;;;;;;5078554;28;20570;-49
2021/10/22 11:58:25;;;;;;;0.68;0.60;;;;;;;;;;5088515;28;20035;-49
2021/10/22 12:00:55;;;;;;;0.70;0.60;;;;;;;;;;5089254;28;20039;-48
2021/10/22 12:03:26;;;;;;;1.05;0.57;;;;;;;;;;5080235;28;20025;-49
2021/10/22 12:05:55;;;;;;;1.23;0.68;;;;;;;;;;5076693;28;20021;-48
2021/10/22 12:08:22;;;;;;;2.20;0.80;;;;;;;;;;5071390;28;20024;-48
2021/10/22 12:10:54;;;;;;;0.52;0.50;;;;;;;;;;5069151;28;20040;-51
2021/10/22 12:13:27;;;;;;;1.88;0.60;;;;;;;;;;5077961;28;20020;-51
2021/10/22 12:15:53;;;;;;;0.82;0.47;;;;;;;;;;5089441;28;20466;-49
2021/10/22 12:18:20;;;;;;;0.50;0.50;;;;;;;;;;5089305;28;20028;-52
2021/10/22 12:20:47;;;;;;;0.50;0.40;;;;;;;;;;5077542;28;20113;-50
2021/10/22 12:23:13;;;;;;;0.40;0.40;;;;;;;;;;5087937;28;20110;-50
2021/10/22 12:25:44;;;;;;;1.00;0.40;;;;;;;;;;5088178;28;20024;-50
2021/10/22 12:28:16;;;;;;;0.30;0.30;;;;;;;;;;5079889;28;20016;-49
2021/10/22 12:30:42;;;;;;;0.43;0.43;;;;;;;;;;5077106;28;20039;-51
2021/10/22 12:33:10;;;;;;;0.95;0.50;;;;;;;;;;5085803;28;20038;-51
2021/10/22 12:35:39;;;;;;;0.45;0.45;;;;;;;;;;5088045;28;20042;-53
2021/10/22 12:38:09;;;;;;;2.35;0.50;;;;;;;;;;5078100;28;20017;-52
2021/10/22 12:40:39;;;;;;;0.55;0.40;;;;;;;;;;5070020;28;20040;-52
2021/10/22 12:43:24;;;;;;;1.05;0.50;;;;;;;;;;5067998;28;20099;-53
2021/10/22 12:45:50;;;;;;;0.95;0.57;;;;;;;;;;5083473;28;20039;-52
2021/10/22 12:48:18;;;;;;;0.47;0.35;;;;;;;;;;5087694;28;20691;-50
2021/10/22 12:50:44;;;;;;;0.43;0.30;;;;;;;;;;5071906;28;20039;-53
2021/10/22 12:53:13;;;;;;;1.08;0.50;;;;;;;;;;5088393;28;20041;-52
2021/10/22 12:55:39;;;;;;;1.15;0.40;;;;;;;;;;5073486;28;20425;-53
2021/10/22 12:58:13;;;;;;;0.60;0.40;;;;;;;;;;5087573;28;20032;-53
2021/10/22 13:00:39;;;;;;;0.85;0.47;;;;;;;;;;5087463;28;20028;-51
2021/10/22 13:03:05;;;;;;;0.50;0.40;;;;;;;;;;5088266;28;20395;-53
2021/10/22 13:05:37;;;;;;;0.63;0.45;;;;;;;;;;5073753;28;20032;-52
2021/10/22 13:10:56;;;;;;;1.00;0.57;;;;;;;;;;5088289;28;20054;-52
2021/10/22 13:21:20;;;;;;;;;;;;;;;;;;5081859;28;20078;-52
2021/10/22 13:23:46;;;;;;;1.05;0.50;;;;;;;;;;5075189;28;19916;-53
2021/10/22 13:26:12;;;;;;;1.90;0.77;;;;;;;;;;5077629;28;20362;-50
2021/10/22 13:28:38;;;;;;;1.45;0.55;;;;;;;;;;5067687;28;20021;-50
2021/10/22 13:31:08;;;;;;;1.00;0.60;;;;;;;;;;5075482;28;20529;-51
2021/10/22 13:33:35;;;;;;;0.63;0.60;;;;;;;;;;5082393;28;20392;-50
2021/10/22 13:36:03;;;;;;;0.65;0.40;;;;;;;;;;5071902;28;20031;-53
2021/10/22 13:38:30;;;;;;;1.33;0.60;;;;;;;;;;5087733;28;20108;-52
2021/10/22 13:40:58;;;;;;;1.13;0.60;;;;;;;;;;5082489;28;20089;-52
2021/10/22 13:43:26;;;;;;;2.03;0.90;;;;;;;;;;5078588;28;20503;-52
2021/10/22 13:45:52;;;;;;;1.15;0.60;;;;;;;;;;5077226;28;20032;-51
2021/10/22 13:48:18;;;;;;;0.47;0.47;;;;;;;;;;5070437;28;20044;-52
2021/10/22 13:50:45;;;;;;;0.95;0.57;;;;;;;;;;5079234;28;20130;-51
2021/10/22 13:53:17;;;;;;;1.60;0.55;;;;;;;;;;5072454;28;20070;-52
2021/10/22 13:55:44;;;;;;;0.38;0.38;;;;;;;;;;5070532;28;20052;-52
2021/10/22 13:58:11;;;;;;;0.65;0.40;;;;;;;;;;5070002;28;20761;-49
2021/10/22 14:00:38;;;;;;;1.00;0.40;;;;;;;;;;5068562;28;20033;-54
2021/10/22 14:03:05;;;;;;;0.40;0.40;;;;;;;;;;5066834;28;20127;-51
2021/10/22 14:05:31;;;;;;;1.48;0.63;;;;;;;;;;5081485;28;20028;-52
2021/10/22 14:07:57;;;;;;;0.60;0.40;;;;;;;;;;5078301;28;20062;-52
2021/10/22 14:10:25;;;;;;;2.67;0.50;;;;;;;;;;5080587;28;20513;-51
2021/10/22 14:23:51;;;;;;;;;;;;;;;;;;5067238;28;20035;-54
2021/10/22 14:29:09;;;;;;;1.73;1.00;;;;;;;;;;5070119;28;20032;-55
2021/10/22 14:31:39;;;;;;;1.00;0.60;;;;;;;;;;5067531;28;20522;-54
2021/10/22 14:34:07;;;;;;;1.40;0.60;;;;;;;;;;5066855;28;20028;-55
2021/10/22 14:36:33;;;;;;;0.85;0.50;;;;;;;;;;5076555;28;20062;-55
2021/10/22 14:38:59;;;;;;;0.88;0.65;;;;;;;;;;5078851;28;20029;-55
2021/10/22 14:41:27;;;;;;;1.73;0.68;;;;;;;;;;5067549;28;20395;-55
2021/10/22 14:44:01;;;;;;;0.55;0.40;;;;;;;;;;5067565;28;20025;-55
2021/10/22 14:46:29;;;;;;;0.93;0.73;;;;;;;;;;5067195;28;20012;-55
2021/10/22 14:49:08;;;;;;;0.63;0.57;;;;;;;;;;5069273;28;20443;-54
2021/10/22 14:54:18;;;;;;;0.98;0.60;;;;;;;;;;5066948;28;20039;-55
2021/10/22 14:56:44;;;;;;;1.30;0.60;;;;;;;;;;5067149;28;20024;-53
2021/10/22 14:59:14;;;;;;;0.77;0.68;;;;;;;;;;5066137;28;20044;-54
2021/10/22 15:01:43;;;;;;;0.80;0.60;;;;;;;;;;5072496;28;20028;-53
2021/10/22 15:04:09;;;;;;;2.42;0.70;;;;;;;;;;5069174;28;20024;-55
2021/10/22 15:06:36;;;;;;;1.60;0.80;;;;;;;;;;5066786;28;20025;-55
2021/10/22 15:09:03;;;;;;;0.98;0.57;;;;;;;;;;5070135;28;20024;-53
2021/10/22 15:11:30;;;;;;;1.17;0.63;;;;;;;;;;5068608;28;20041;-55
2021/10/22 15:13:57;;;;;;;1.42;0.50;;;;;;;;;;5074012;28;20077;-54
2021/10/22 15:16:23;;;;;;;0.50;0.50;;;;;;;;;;5078472;28;20028;-55
2021/10/22 15:18:50;;;;;;;1.10;0.63;;;;;;;;;;5079745;28;20122;-53